sensor_id;sensor_type;location;lat;lon;timestamp;P1;durP1;ratioP1;P2;durP2;ratioP2
2257;SDS011;1136;51.574;7.706;2022-10-01T00:00:55;3.23;;;2.93;;
2257;SDS011;1136;51.574;7.706;2022-10-01T00:03:22;5.70;;;3.70;;
2257;SDS011;1136;51.574;7.706;2022-10-01T00:05:57;4.27;;;3.60;;
2257;SDS011;1136;51.574;7.706;2022-10-01T00:08:28;4.00;;;3.70;;
2257;SDS011;1136;51.574;7.706;2022-10-01T00:10:56;3.53;;;3.23;;
2257;SDS011;1136;51.574;7.706;2022-10-01T00:13:23;3.53;;;3.23;;
2257;SDS011;1136;51.574;7.706;2022-10-01T00:15:50;4.47;;;3.23;;
2257;SDS011;1136;51.574;7.706;2022-10-01T00:18:16;4.50;;;3.97;;
2257;SDS011;1136;51.574;7.706;2022-10-01T00:20:43;3.33;;;3.07;;
2257;SDS011;1136;51.574;7.706;2022-10-01T00:23:10;3.37;;;3.17;;
2257;SDS011;1136;51.574;7.706;2022-10-01T00:25:38;6.43;;;3.50;;
2257;SDS011;1136;51.574;7.706;2022-10-01T00:28:05;4.00;;;3.30;;
2257;SDS011;1136;51.574;7.706;2022-10-01T00:30:33;5.67;;;3.00;;
2257;SDS011;1136;51.574;7.706;2022-10-01T00:33:05;3.47;;;3.10;;
2257;SDS011;1136;51.574;7.706;2022-10-01T00:35:32;5.70;;;3.50;;
2257;SDS011;1136;51.574;7.706;2022-10-01T00:37:58;3.93;;;3.40;;
2257;SDS011;1136;51.574;7.706;2022-10-01T00:40:25;6.43;;;4.27;;
2257;SDS011;1136;51.574;7.706;2022-10-01T00:42:52;3.70;;;3.40;;
2257;SDS011;1136;51.574;7.706;2022-10-01T00:45:18;4.17;;;3.53;;
2257;SDS011;1136;51.574;7.706;2022-10-01T00:47:49;3.90;;;3.60;;
2257;SDS011;1136;51.574;7.706;2022-10-01T00:50:36;4.60;;;4.20;;
2257;SDS011;1136;51.574;7.706;2022-10-01T00:53:04;3.80;;;3.50;;
2257;SDS011;1136;51.574;7.706;2022-10-01T00:55:33;4.00;;;3.60;;
2257;SDS011;1136;51.574;7.706;2022-10-01T00:58:02;3.90;;;3.60;;
2257;SDS011;1136;51.574;7.706;2022-10-01T01:00:29;5.00;;;4.00;;
2257;SDS011;1136;51.574;7.706;2022-10-01T01:02:56;3.47;;;3.17;;
2257;SDS011;1136;51.574;7.706;2022-10-01T01:05:23;4.30;;;3.53;;
2257;SDS011;1136;51.574;7.706;2022-10-01T01:07:50;4.53;;;3.87;;
2257;SDS011;1136;51.574;7.706;2022-10-01T01:10:41;3.57;;;3.20;;
2257;SDS011;1136;51.574;7.706;2022-10-01T01:16:07;3.20;;;2.90;;
2257;SDS011;1136;51.574;7.706;2022-10-01T01:18:40;5.07;;;3.93;;
2257;SDS011;1136;51.574;7.706;2022-10-01T01:21:18;3.77;;;3.40;;
2257;SDS011;1136;51.574;7.706;2022-10-01T01:31:46;3.60;;;3.23;;
2257;SDS011;1136;51.574;7.706;2022-10-01T01:34:16;3.70;;;3.50;;
2257;SDS011;1136;51.574;7.706;2022-10-01T01:36:49;5.80;;;4.23;;
2257;SDS011;1136;51.574;7.706;2022-10-01T01:39:19;4.10;;;3.70;;
2257;SDS011;1136;51.574;7.706;2022-10-01T01:41:48;6.40;;;4.57;;
2257;SDS011;1136;51.574;7.706;2022-10-01T01:44:17;7.57;;;4.63;;
2257;SDS011;1136;51.574;7.706;2022-10-01T01:46:47;4.37;;;3.97;;
2257;SDS011;1136;51.574;7.706;2022-10-01T01:49:18;6.30;;;4.43;;
2257;SDS011;1136;51.574;7.706;2022-10-01T01:51:56;9.00;;;4.73;;
2257;SDS011;1136;51.574;7.706;2022-10-01T01:54:26;5.60;;;4.33;;
2257;SDS011;1136;51.574;7.706;2022-10-01T01:56:56;5.07;;;4.67;;
2257;SDS011;1136;51.574;7.706;2022-10-01T01:59:24;5.37;;;4.80;;
2257;SDS011;1136;51.574;7.706;2022-10-01T02:01:51;5.60;;;5.10;;
2257;SDS011;1136;51.574;7.706;2022-10-01T02:19:08;6.37;;;5.77;;
2257;SDS011;1136;51.574;7.706;2022-10-01T02:21:36;6.53;;;5.83;;
2257;SDS011;1136;51.574;7.706;2022-10-01T02:24:31;6.10;;;5.67;;
2257;SDS011;1136;51.574;7.706;2022-10-01T02:27:07;6.90;;;6.27;;
2257;SDS011;1136;51.574;7.706;2022-10-01T02:29:38;5.87;;;5.37;;
2257;SDS011;1136;51.574;7.706;2022-10-01T02:32:05;4.90;;;4.50;;
2257;SDS011;1136;51.574;7.706;2022-10-01T02:34:33;6.50;;;6.07;;
2257;SDS011;1136;51.574;7.706;2022-10-01T02:37:00;7.00;;;5.23;;
2257;SDS011;1136;51.574;7.706;2022-10-01T02:39:29;5.77;;;5.27;;
2257;SDS011;1136;51.574;7.706;2022-10-01T02:41:56;8.53;;;5.40;;
2257;SDS011;1136;51.574;7.706;2022-10-01T02:44:26;5.37;;;4.87;;
2257;SDS011;1136;51.574;7.706;2022-10-01T02:47:00;7.63;;;4.50;;
2257;SDS011;1136;51.574;7.706;2022-10-01T02:49:29;4.27;;;3.97;;
2257;SDS011;1136;51.574;7.706;2022-10-01T02:57:24;4.33;;;4.03;;
2257;SDS011;1136;51.574;7.706;2022-10-01T02:59:56;4.30;;;3.93;;
2257;SDS011;1136;51.574;7.706;2022-10-01T03:02:27;4.87;;;4.47;;
2257;SDS011;1136;51.574;7.706;2022-10-01T03:04:55;4.27;;;3.97;;
2257;SDS011;1136;51.574;7.706;2022-10-01T03:07:23;4.27;;;3.97;;
2257;SDS011;1136;51.574;7.706;2022-10-01T03:09:50;4.50;;;4.20;;
2257;SDS011;1136;51.574;7.706;2022-10-01T03:12:17;5.27;;;4.13;;
2257;SDS011;1136;51.574;7.706;2022-10-01T03:14:44;4.20;;;3.90;;
2257;SDS011;1136;51.574;7.706;2022-10-01T03:17:11;4.90;;;4.60;;
2257;SDS011;1136;51.574;7.706;2022-10-01T03:19:39;4.40;;;3.97;;
2257;SDS011;1136;51.574;7.706;2022-10-01T03:22:06;4.13;;;3.60;;
2257;SDS011;1136;51.574;7.706;2022-10-01T03:24:33;3.97;;;3.67;;
2257;SDS011;1136;51.574;7.706;2022-10-01T03:27:00;4.20;;;3.80;;
2257;SDS011;1136;51.574;7.706;2022-10-01T03:29:27;4.50;;;3.50;;
2257;SDS011;1136;51.574;7.706;2022-10-01T03:31:54;4.20;;;3.83;;
2257;SDS011;1136;51.574;7.706;2022-10-01T03:34:21;4.20;;;3.90;;
2257;SDS011;1136;51.574;7.706;2022-10-01T03:36:48;5.10;;;3.83;;
2257;SDS011;1136;51.574;7.706;2022-10-01T03:39:15;4.50;;;4.20;;
2257;SDS011;1136;51.574;7.706;2022-10-01T03:41:41;4.37;;;3.87;;
2257;SDS011;1136;51.574;7.706;2022-10-01T03:44:08;4.57;;;4.17;;
2257;SDS011;1136;51.574;7.706;2022-10-01T03:46:35;5.20;;;4.53;;
2257;SDS011;1136;51.574;7.706;2022-10-01T03:49:02;4.20;;;3.80;;
2257;SDS011;1136;51.574;7.706;2022-10-01T03:51:29;5.70;;;4.27;;
2257;SDS011;1136;51.574;7.706;2022-10-01T03:53:56;4.80;;;3.80;;
2257;SDS011;1136;51.574;7.706;2022-10-01T03:56:23;4.10;;;3.70;;
2257;SDS011;1136;51.574;7.706;2022-10-01T03:58:50;4.50;;;4.10;;
2257;SDS011;1136;51.574;7.706;2022-10-01T04:01:17;4.90;;;3.63;;
2257;SDS011;1136;51.574;7.706;2022-10-01T04:03:43;3.97;;;3.67;;
2257;SDS011;1136;51.574;7.706;2022-10-01T04:06:10;4.97;;;3.70;;
2257;SDS011;1136;51.574;7.706;2022-10-01T04:08:37;4.33;;;4.03;;
2257;SDS011;1136;51.574;7.706;2022-10-01T04:11:05;5.53;;;3.27;;
2257;SDS011;1136;51.574;7.706;2022-10-01T04:13:32;4.00;;;3.60;;
2257;SDS011;1136;51.574;7.706;2022-10-01T04:16:00;4.00;;;3.67;;
2257;SDS011;1136;51.574;7.706;2022-10-01T04:18:29;3.97;;;3.67;;
2257;SDS011;1136;51.574;7.706;2022-10-01T04:20:56;4.77;;;4.27;;
2257;SDS011;1136;51.574;7.706;2022-10-01T04:23:23;4.30;;;3.90;;
2257;SDS011;1136;51.574;7.706;2022-10-01T04:25:50;3.83;;;3.50;;
2257;SDS011;1136;51.574;7.706;2022-10-01T04:28:17;3.83;;;3.57;;
2257;SDS011;1136;51.574;7.706;2022-10-01T04:30:44;3.83;;;3.37;;
2257;SDS011;1136;51.574;7.706;2022-10-01T04:33:12;3.63;;;3.33;;
2257;SDS011;1136;51.574;7.706;2022-10-01T04:35:40;4.13;;;3.50;;
2257;SDS011;1136;51.574;7.706;2022-10-01T04:38:15;3.20;;;3.00;;
2257;SDS011;1136;51.574;7.706;2022-10-01T04:40:42;2.77;;;2.57;;
2257;SDS011;1136;51.574;7.706;2022-10-01T04:43:09;3.60;;;3.30;;
2257;SDS011;1136;51.574;7.706;2022-10-01T04:45:36;3.07;;;2.87;;
2257;SDS011;1136;51.574;7.706;2022-10-01T04:48:03;2.47;;;2.37;;
2257;SDS011;1136;51.574;7.706;2022-10-01T04:50:30;3.73;;;2.60;;
2257;SDS011;1136;51.574;7.706;2022-10-01T04:52:57;2.97;;;2.13;;
2257;SDS011;1136;51.574;7.706;2022-10-01T04:55:23;2.90;;;2.70;;
2257;SDS011;1136;51.574;7.706;2022-10-01T04:57:50;2.70;;;2.50;;
2257;SDS011;1136;51.574;7.706;2022-10-01T05:00:18;2.43;;;2.20;;
2257;SDS011;1136;51.574;7.706;2022-10-01T05:02:56;2.13;;;1.90;;
2257;SDS011;1136;51.574;7.706;2022-10-01T05:05:23;2.27;;;2.17;;
2257;SDS011;1136;51.574;7.706;2022-10-01T05:07:52;2.00;;;1.80;;
2257;SDS011;1136;51.574;7.706;2022-10-01T05:10:20;1.67;;;1.57;;
2257;SDS011;1136;51.574;7.706;2022-10-01T05:12:48;1.57;;;1.47;;
2257;SDS011;1136;51.574;7.706;2022-10-01T05:15:15;1.63;;;1.53;;
2257;SDS011;1136;51.574;7.706;2022-10-01T05:17:42;1.70;;;1.60;;
2257;SDS011;1136;51.574;7.706;2022-10-01T05:20:13;1.83;;;1.73;;
2257;SDS011;1136;51.574;7.706;2022-10-01T05:22:42;2.00;;;1.87;;
2257;SDS011;1136;51.574;7.706;2022-10-01T05:25:10;2.03;;;1.93;;
2257;SDS011;1136;51.574;7.706;2022-10-01T05:27:37;2.00;;;1.87;;
2257;SDS011;1136;51.574;7.706;2022-10-01T05:30:06;2.13;;;1.93;;
2257;SDS011;1136;51.574;7.706;2022-10-01T05:32:37;1.77;;;1.67;;
2257;SDS011;1136;51.574;7.706;2022-10-01T05:35:04;2.20;;;2.00;;
2257;SDS011;1136;51.574;7.706;2022-10-01T05:37:32;2.30;;;1.60;;
2257;SDS011;1136;51.574;7.706;2022-10-01T05:39:59;1.90;;;1.70;;
2257;SDS011;1136;51.574;7.706;2022-10-01T05:42:27;2.53;;;2.33;;
2257;SDS011;1136;51.574;7.706;2022-10-01T05:44:53;2.30;;;1.90;;
2257;SDS011;1136;51.574;7.706;2022-10-01T05:47:21;1.80;;;1.70;;
2257;SDS011;1136;51.574;7.706;2022-10-01T05:49:48;1.57;;;1.47;;
2257;SDS011;1136;51.574;7.706;2022-10-01T05:52:14;1.80;;;1.70;;
2257;SDS011;1136;51.574;7.706;2022-10-01T05:54:41;2.27;;;2.17;;
2257;SDS011;1136;51.574;7.706;2022-10-01T05:57:08;2.40;;;2.20;;
2257;SDS011;1136;51.574;7.706;2022-10-01T05:59:35;2.47;;;2.27;;
2257;SDS011;1136;51.574;7.706;2022-10-01T06:02:01;2.20;;;2.10;;
2257;SDS011;1136;51.574;7.706;2022-10-01T06:04:29;2.30;;;1.83;;
2257;SDS011;1136;51.574;7.706;2022-10-01T06:06:56;2.40;;;2.30;;
2257;SDS011;1136;51.574;7.706;2022-10-01T06:09:22;2.23;;;2.03;;
2257;SDS011;1136;51.574;7.706;2022-10-01T06:11:49;2.20;;;2.10;;
2257;SDS011;1136;51.574;7.706;2022-10-01T06:14:16;1.70;;;1.60;;
2257;SDS011;1136;51.574;7.706;2022-10-01T06:16:42;1.50;;;1.40;;
2257;SDS011;1136;51.574;7.706;2022-10-01T06:19:09;2.00;;;1.90;;
2257;SDS011;1136;51.574;7.706;2022-10-01T06:21:36;1.40;;;1.30;;
2257;SDS011;1136;51.574;7.706;2022-10-01T06:24:03;1.50;;;1.40;;
2257;SDS011;1136;51.574;7.706;2022-10-01T06:26:30;1.67;;;1.47;;
2257;SDS011;1136;51.574;7.706;2022-10-01T06:28:57;1.47;;;1.30;;
2257;SDS011;1136;51.574;7.706;2022-10-01T06:31:23;2.57;;;1.40;;
2257;SDS011;1136;51.574;7.706;2022-10-01T06:33:50;1.03;;;0.93;;
2257;SDS011;1136;51.574;7.706;2022-10-01T06:36:17;1.40;;;1.30;;
2257;SDS011;1136;51.574;7.706;2022-10-01T06:38:46;0.90;;;0.90;;
2257;SDS011;1136;51.574;7.706;2022-10-01T06:41:13;0.90;;;0.90;;
2257;SDS011;1136;51.574;7.706;2022-10-01T06:43:39;2.10;;;0.90;;
2257;SDS011;1136;51.574;7.706;2022-10-01T06:46:06;3.43;;;1.00;;
2257;SDS011;1136;51.574;7.706;2022-10-01T06:48:33;1.73;;;1.00;;
2257;SDS011;1136;51.574;7.706;2022-10-01T06:51:01;0.80;;;0.80;;
2257;SDS011;1136;51.574;7.706;2022-10-01T06:53:28;1.37;;;1.27;;
2257;SDS011;1136;51.574;7.706;2022-10-01T06:55:55;3.67;;;1.80;;
2257;SDS011;1136;51.574;7.706;2022-10-01T06:58:22;4.80;;;2.70;;
2257;SDS011;1136;51.574;7.706;2022-10-01T07:01:02;1.40;;;1.30;;
2257;SDS011;1136;51.574;7.706;2022-10-01T07:03:29;0.93;;;0.90;;
2257;SDS011;1136;51.574;7.706;2022-10-01T07:06:00;1.20;;;1.10;;
2257;SDS011;1136;51.574;7.706;2022-10-01T07:08:28;1.20;;;0.93;;
2257;SDS011;1136;51.574;7.706;2022-10-01T07:11:01;1.60;;;1.50;;
2257;SDS011;1136;51.574;7.706;2022-10-01T07:13:28;1.97;;;1.87;;
2257;SDS011;1136;51.574;7.706;2022-10-01T07:15:55;1.87;;;1.20;;
2257;SDS011;1136;51.574;7.706;2022-10-01T07:18:22;1.20;;;1.10;;
2257;SDS011;1136;51.574;7.706;2022-10-01T07:20:49;4.13;;;1.93;;
2257;SDS011;1136;51.574;7.706;2022-10-01T07:23:16;2.00;;;1.13;;
2257;SDS011;1136;51.574;7.706;2022-10-01T07:25:42;1.80;;;1.50;;
2257;SDS011;1136;51.574;7.706;2022-10-01T07:28:17;1.20;;;1.10;;
2257;SDS011;1136;51.574;7.706;2022-10-01T07:30:47;0.97;;;0.80;;
2257;SDS011;1136;51.574;7.706;2022-10-01T07:33:26;1.20;;;1.10;;
2257;SDS011;1136;51.574;7.706;2022-10-01T07:35:53;1.63;;;1.53;;
2257;SDS011;1136;51.574;7.706;2022-10-01T07:38:20;1.93;;;1.70;;
2257;SDS011;1136;51.574;7.706;2022-10-01T07:40:50;1.40;;;1.30;;
2257;SDS011;1136;51.574;7.706;2022-10-01T07:43:17;1.40;;;1.30;;
2257;SDS011;1136;51.574;7.706;2022-10-01T07:45:44;1.30;;;1.20;;
2257;SDS011;1136;51.574;7.706;2022-10-01T07:48:12;1.40;;;1.30;;
2257;SDS011;1136;51.574;7.706;2022-10-01T07:50:41;1.10;;;1.10;;
2257;SDS011;1136;51.574;7.706;2022-10-01T07:53:10;1.70;;;1.60;;
2257;SDS011;1136;51.574;7.706;2022-10-01T07:55:37;3.67;;;2.00;;
2257;SDS011;1136;51.574;7.706;2022-10-01T07:58:04;1.70;;;1.60;;
2257;SDS011;1136;51.574;7.706;2022-10-01T08:00:31;1.90;;;1.80;;
2257;SDS011;1136;51.574;7.706;2022-10-01T08:02:58;2.03;;;1.90;;
2257;SDS011;1136;51.574;7.706;2022-10-01T08:05:26;1.90;;;1.80;;
2257;SDS011;1136;51.574;7.706;2022-10-01T08:08:01;1.57;;;1.47;;
2257;SDS011;1136;51.574;7.706;2022-10-01T08:10:29;2.07;;;1.87;;
2257;SDS011;1136;51.574;7.706;2022-10-01T08:13:01;2.13;;;2.00;;
2257;SDS011;1136;51.574;7.706;2022-10-01T08:15:34;1.97;;;1.87;;
2257;SDS011;1136;51.574;7.706;2022-10-01T08:18:01;2.40;;;1.77;;
2257;SDS011;1136;51.574;7.706;2022-10-01T08:20:28;1.80;;;1.70;;
2257;SDS011;1136;51.574;7.706;2022-10-01T08:23:02;2.30;;;2.20;;
2257;SDS011;1136;51.574;7.706;2022-10-01T08:25:29;2.20;;;2.10;;
2257;SDS011;1136;51.574;7.706;2022-10-01T08:27:56;2.17;;;2.07;;
2257;SDS011;1136;51.574;7.706;2022-10-01T08:30:22;2.60;;;2.50;;
2257;SDS011;1136;51.574;7.706;2022-10-01T08:32:57;2.47;;;2.37;;
2257;SDS011;1136;51.574;7.706;2022-10-01T08:35:25;2.60;;;2.43;;
2257;SDS011;1136;51.574;7.706;2022-10-01T08:37:52;2.50;;;2.40;;
2257;SDS011;1136;51.574;7.706;2022-10-01T08:40:21;3.43;;;2.87;;
2257;SDS011;1136;51.574;7.706;2022-10-01T08:42:56;10.33;;;8.50;;
2257;SDS011;1136;51.574;7.706;2022-10-01T08:52:59;4.40;;;3.50;;
2257;SDS011;1136;51.574;7.706;2022-10-01T08:55:27;3.33;;;3.03;;
2257;SDS011;1136;51.574;7.706;2022-10-01T08:58:02;2.90;;;2.80;;
2257;SDS011;1136;51.574;7.706;2022-10-01T09:00:30;2.40;;;2.20;;
2257;SDS011;1136;51.574;7.706;2022-10-01T09:03:02;3.57;;;2.97;;
2257;SDS011;1136;51.574;7.706;2022-10-01T09:14:28;3.03;;;2.10;;
2257;SDS011;1136;51.574;7.706;2022-10-01T09:22:17;2.27;;;2.07;;
2257;SDS011;1136;51.574;7.706;2022-10-01T09:24:57;2.20;;;2.10;;
2257;SDS011;1136;51.574;7.706;2022-10-01T09:27:32;4.77;;;2.07;;
2257;SDS011;1136;51.574;7.706;2022-10-01T09:30:08;4.67;;;2.67;;
2257;SDS011;1136;51.574;7.706;2022-10-01T09:32:46;2.63;;;2.43;;
2257;SDS011;1136;51.574;7.706;2022-10-01T09:38:08;2.40;;;2.30;;
2257;SDS011;1136;51.574;7.706;2022-10-01T09:40:47;3.17;;;2.90;;
2257;SDS011;1136;51.574;7.706;2022-10-01T09:43:20;4.23;;;2.70;;
2257;SDS011;1136;51.574;7.706;2022-10-01T09:45:48;3.10;;;2.50;;
2257;SDS011;1136;51.574;7.706;2022-10-01T09:50:58;2.87;;;2.60;;
2257;SDS011;1136;51.574;7.706;2022-10-01T09:53:40;2.80;;;2.70;;
2257;SDS011;1136;51.574;7.706;2022-10-01T09:56:16;3.00;;;2.80;;
2257;SDS011;1136;51.574;7.706;2022-10-01T09:58:54;3.10;;;2.90;;
2257;SDS011;1136;51.574;7.706;2022-10-01T10:01:28;2.90;;;2.60;;
2257;SDS011;1136;51.574;7.706;2022-10-01T10:04:01;3.10;;;2.77;;
2257;SDS011;1136;51.574;7.706;2022-10-01T10:06:28;3.47;;;3.27;;
2257;SDS011;1136;51.574;7.706;2022-10-01T10:08:55;3.57;;;3.27;;
2257;SDS011;1136;51.574;7.706;2022-10-01T10:11:24;3.50;;;3.20;;
2257;SDS011;1136;51.574;7.706;2022-10-01T10:13:57;3.63;;;3.30;;
2257;SDS011;1136;51.574;7.706;2022-10-01T10:16:35;3.10;;;2.90;;
2257;SDS011;1136;51.574;7.706;2022-10-01T10:19:04;6.80;;;3.40;;
2257;SDS011;1136;51.574;7.706;2022-10-01T10:21:35;3.50;;;3.20;;
2257;SDS011;1136;51.574;7.706;2022-10-01T10:24:03;5.80;;;3.30;;
2257;SDS011;1136;51.574;7.706;2022-10-01T10:26:32;6.87;;;3.33;;
2257;SDS011;1136;51.574;7.706;2022-10-01T10:29:00;4.17;;;3.13;;
2257;SDS011;1136;51.574;7.706;2022-10-01T10:31:29;3.30;;;2.70;;
2257;SDS011;1136;51.574;7.706;2022-10-01T10:37:01;4.07;;;3.27;;
2257;SDS011;1136;51.574;7.706;2022-10-01T10:39:33;3.00;;;2.73;;
2257;SDS011;1136;51.574;7.706;2022-10-01T10:42:01;3.00;;;2.80;;
2257;SDS011;1136;51.574;7.706;2022-10-01T10:44:31;3.60;;;3.30;;
2257;SDS011;1136;51.574;7.706;2022-10-01T10:47:03;3.63;;;2.90;;
2257;SDS011;1136;51.574;7.706;2022-10-01T10:49:33;4.67;;;3.63;;
2257;SDS011;1136;51.574;7.706;2022-10-01T10:52:16;3.87;;;3.13;;
2257;SDS011;1136;51.574;7.706;2022-10-01T10:54:46;3.23;;;2.80;;
2257;SDS011;1136;51.574;7.706;2022-10-01T10:57:22;3.83;;;3.43;;
2257;SDS011;1136;51.574;7.706;2022-10-01T10:59:53;7.00;;;3.60;;
2257;SDS011;1136;51.574;7.706;2022-10-01T11:02:23;4.23;;;2.60;;
2257;SDS011;1136;51.574;7.706;2022-10-01T11:05:10;3.43;;;2.00;;
2257;SDS011;1136;51.574;7.706;2022-10-01T11:07:43;1.60;;;1.50;;
2257;SDS011;1136;51.574;7.706;2022-10-01T11:10:17;1.77;;;1.67;;
2257;SDS011;1136;51.574;7.706;2022-10-01T11:13:17;2.23;;;1.77;;
2257;SDS011;1136;51.574;7.706;2022-10-01T11:29:01;2.90;;;1.60;;
2257;SDS011;1136;51.574;7.706;2022-10-01T11:34:24;5.10;;;2.40;;
2257;SDS011;1136;51.574;7.706;2022-10-01T11:39:56;1.70;;;1.60;;
2257;SDS011;1136;51.574;7.706;2022-10-01T11:42:25;1.83;;;1.73;;
2257;SDS011;1136;51.574;7.706;2022-10-01T11:45:21;1.80;;;1.70;;
2257;SDS011;1136;51.574;7.706;2022-10-01T11:47:53;3.90;;;2.50;;
2257;SDS011;1136;51.574;7.706;2022-10-01T11:50:23;1.73;;;1.63;;
2257;SDS011;1136;51.574;7.706;2022-10-01T11:55:22;4.67;;;2.10;;
2257;SDS011;1136;51.574;7.706;2022-10-01T12:01:08;2.20;;;1.90;;
2257;SDS011;1136;51.574;7.706;2022-10-01T12:06:20;3.27;;;2.17;;
2257;SDS011;1136;51.574;7.706;2022-10-01T12:08:56;2.53;;;2.33;;
2257;SDS011;1136;51.574;7.706;2022-10-01T12:11:29;3.07;;;2.77;;
2257;SDS011;1136;51.574;7.706;2022-10-01T12:14:01;2.93;;;2.67;;
2257;SDS011;1136;51.574;7.706;2022-10-01T12:19:28;3.47;;;3.17;;
2257;SDS011;1136;51.574;7.706;2022-10-01T12:24:50;3.20;;;2.87;;
2257;SDS011;1136;51.574;7.706;2022-10-01T12:46:10;3.30;;;2.00;;
2257;SDS011;1136;51.574;7.706;2022-10-01T13:10:33;3.83;;;2.20;;
2257;SDS011;1136;51.574;7.706;2022-10-01T13:13:03;2.53;;;2.10;;
2257;SDS011;1136;51.574;7.706;2022-10-01T13:15:34;5.33;;;2.60;;
2257;SDS011;1136;51.574;7.706;2022-10-01T13:21:19;3.80;;;1.90;;
2257;SDS011;1136;51.574;7.706;2022-10-01T13:23:57;4.93;;;3.60;;
2257;SDS011;1136;51.574;7.706;2022-10-01T13:26:34;5.50;;;3.20;;
2257;SDS011;1136;51.574;7.706;2022-10-01T13:32:01;3.87;;;2.70;;
2257;SDS011;1136;51.574;7.706;2022-10-01T13:34:40;4.30;;;2.73;;
2257;SDS011;1136;51.574;7.706;2022-10-01T13:39:44;4.10;;;3.23;;
2257;SDS011;1136;51.574;7.706;2022-10-01T13:42:22;4.57;;;3.27;;
2257;SDS011;1136;51.574;7.706;2022-10-01T13:44:53;9.73;;;3.63;;
2257;SDS011;1136;51.574;7.706;2022-10-01T13:47:21;4.13;;;3.73;;
2257;SDS011;1136;51.574;7.706;2022-10-01T13:49:59;5.17;;;3.67;;
2257;SDS011;1136;51.574;7.706;2022-10-01T13:52:29;6.40;;;3.23;;
2257;SDS011;1136;51.574;7.706;2022-10-01T13:55:00;3.80;;;3.07;;
2257;SDS011;1136;51.574;7.706;2022-10-01T14:02:39;4.20;;;2.30;;
2257;SDS011;1136;51.574;7.706;2022-10-01T14:07:49;4.60;;;2.60;;
2257;SDS011;1136;51.574;7.706;2022-10-01T14:10:19;6.83;;;3.23;;
2257;SDS011;1136;51.574;7.706;2022-10-01T14:12:46;5.13;;;3.20;;
2257;SDS011;1136;51.574;7.706;2022-10-01T14:15:41;5.67;;;2.70;;
2257;SDS011;1136;51.574;7.706;2022-10-01T14:18:27;14.47;;;3.60;;
2257;SDS011;1136;51.574;7.706;2022-10-01T14:21:15;6.97;;;2.80;;
2257;SDS011;1136;51.574;7.706;2022-10-01T14:26:45;8.03;;;2.23;;
2257;SDS011;1136;51.574;7.706;2022-10-01T14:29:26;6.83;;;2.33;;
2257;SDS011;1136;51.574;7.706;2022-10-01T14:34:34;11.40;;;2.77;;
2257;SDS011;1136;51.574;7.706;2022-10-01T14:37:09;6.17;;;2.40;;
2257;SDS011;1136;51.574;7.706;2022-10-01T14:39:42;9.33;;;2.80;;
2257;SDS011;1136;51.574;7.706;2022-10-01T14:42:09;3.80;;;2.27;;
2257;SDS011;1136;51.574;7.706;2022-10-01T14:44:43;5.07;;;2.60;;
2257;SDS011;1136;51.574;7.706;2022-10-01T14:47:18;5.13;;;2.27;;
2257;SDS011;1136;51.574;7.706;2022-10-01T14:49:46;4.63;;;2.20;;
2257;SDS011;1136;51.574;7.706;2022-10-01T14:52:26;5.07;;;2.73;;
2257;SDS011;1136;51.574;7.706;2022-10-01T15:00:27;13.57;;;2.60;;
2257;SDS011;1136;51.574;7.706;2022-10-01T15:03:02;3.23;;;1.90;;
2257;SDS011;1136;51.574;7.706;2022-10-01T15:05:37;9.00;;;2.53;;
2257;SDS011;1136;51.574;7.706;2022-10-01T15:10:46;4.40;;;2.10;;
2257;SDS011;1136;51.574;7.706;2022-10-01T15:13:27;5.17;;;2.23;;
2257;SDS011;1136;51.574;7.706;2022-10-01T15:15:56;10.30;;;3.97;;
2257;SDS011;1136;51.574;7.706;2022-10-01T15:18:22;5.80;;;2.43;;
2257;SDS011;1136;51.574;7.706;2022-10-01T15:20:50;8.30;;;2.97;;
2257;SDS011;1136;51.574;7.706;2022-10-01T15:23:21;5.03;;;2.50;;
2257;SDS011;1136;51.574;7.706;2022-10-01T15:25:49;6.33;;;2.40;;
2257;SDS011;1136;51.574;7.706;2022-10-01T15:28:24;5.73;;;2.57;;
2257;SDS011;1136;51.574;7.706;2022-10-01T15:30:54;10.47;;;2.10;;
2257;SDS011;1136;51.574;7.706;2022-10-01T15:33:28;3.70;;;2.00;;
2257;SDS011;1136;51.574;7.706;2022-10-01T15:35:56;6.17;;;2.30;;
2257;SDS011;1136;51.574;7.706;2022-10-01T15:38:25;6.77;;;2.37;;
2257;SDS011;1136;51.574;7.706;2022-10-01T15:40:53;6.10;;;2.00;;
2257;SDS011;1136;51.574;7.706;2022-10-01T15:43:44;4.30;;;2.23;;
2257;SDS011;1136;51.574;7.706;2022-10-01T15:46:18;4.87;;;2.00;;
2257;SDS011;1136;51.574;7.706;2022-10-01T15:51:45;4.03;;;1.90;;
2257;SDS011;1136;51.574;7.706;2022-10-01T15:54:34;4.00;;;2.00;;
2257;SDS011;1136;51.574;7.706;2022-10-01T15:57:01;6.73;;;2.23;;
2257;SDS011;1136;51.574;7.706;2022-10-01T15:59:28;11.80;;;2.37;;
2257;SDS011;1136;51.574;7.706;2022-10-01T16:01:55;4.67;;;1.90;;
2257;SDS011;1136;51.574;7.706;2022-10-01T16:04:22;5.73;;;2.00;;
2257;SDS011;1136;51.574;7.706;2022-10-01T16:06:49;4.73;;;1.90;;
2257;SDS011;1136;51.574;7.706;2022-10-01T16:17:28;4.60;;;2.00;;
2257;SDS011;1136;51.574;7.706;2022-10-01T16:19:57;3.63;;;2.27;;
2257;SDS011;1136;51.574;7.706;2022-10-01T16:24:58;5.83;;;2.20;;
2257;SDS011;1136;51.574;7.706;2022-10-01T16:29:56;5.07;;;2.30;;
2257;SDS011;1136;51.574;7.706;2022-10-01T16:32:30;5.00;;;2.10;;
2257;SDS011;1136;51.574;7.706;2022-10-01T16:37:45;6.00;;;2.70;;
2257;SDS011;1136;51.574;7.706;2022-10-01T16:40:13;5.07;;;2.30;;
2257;SDS011;1136;51.574;7.706;2022-10-01T16:42:42;8.20;;;2.70;;
2257;SDS011;1136;51.574;7.706;2022-10-01T16:45:28;5.87;;;2.90;;
2257;SDS011;1136;51.574;7.706;2022-10-01T16:47:58;5.07;;;2.50;;
2257;SDS011;1136;51.574;7.706;2022-10-01T16:50:25;7.13;;;2.40;;
2257;SDS011;1136;51.574;7.706;2022-10-01T16:52:53;6.77;;;2.57;;
2257;SDS011;1136;51.574;7.706;2022-10-01T16:55:24;9.40;;;2.83;;
2257;SDS011;1136;51.574;7.706;2022-10-01T16:57:52;11.77;;;2.40;;
2257;SDS011;1136;51.574;7.706;2022-10-01T17:00:25;12.90;;;2.60;;
2257;SDS011;1136;51.574;7.706;2022-10-01T17:02:54;4.80;;;2.63;;
2257;SDS011;1136;51.574;7.706;2022-10-01T17:05:29;9.83;;;3.10;;
2257;SDS011;1136;51.574;7.706;2022-10-01T17:07:56;8.00;;;3.03;;
2257;SDS011;1136;51.574;7.706;2022-10-01T17:10:26;8.50;;;2.77;;
2257;SDS011;1136;51.574;7.706;2022-10-01T17:12:54;5.33;;;2.30;;
2257;SDS011;1136;51.574;7.706;2022-10-01T17:15:22;6.20;;;2.83;;
2257;SDS011;1136;51.574;7.706;2022-10-01T17:17:55;9.37;;;3.27;;
2257;SDS011;1136;51.574;7.706;2022-10-01T17:20:23;5.03;;;2.80;;
2257;SDS011;1136;51.574;7.706;2022-10-01T17:22:51;8.63;;;2.70;;
2257;SDS011;1136;51.574;7.706;2022-10-01T17:25:20;5.83;;;2.77;;
2257;SDS011;1136;51.574;7.706;2022-10-01T17:27:47;11.20;;;2.93;;
2257;SDS011;1136;51.574;7.706;2022-10-01T17:30:15;10.60;;;6.53;;
2257;SDS011;1136;51.574;7.706;2022-10-01T17:32:42;13.63;;;8.10;;
2257;SDS011;1136;51.574;7.706;2022-10-01T17:35:12;9.83;;;3.67;;
2257;SDS011;1136;51.574;7.706;2022-10-01T17:37:39;11.03;;;2.73;;
2257;SDS011;1136;51.574;7.706;2022-10-01T17:40:07;6.67;;;2.10;;
2257;SDS011;1136;51.574;7.706;2022-10-01T17:42:35;6.23;;;3.00;;
2257;SDS011;1136;51.574;7.706;2022-10-01T17:45:02;9.60;;;2.80;;
2257;SDS011;1136;51.574;7.706;2022-10-01T17:47:31;5.43;;;2.60;;
2257;SDS011;1136;51.574;7.706;2022-10-01T17:49:59;5.77;;;2.20;;
2257;SDS011;1136;51.574;7.706;2022-10-01T17:52:25;6.70;;;2.40;;
2257;SDS011;1136;51.574;7.706;2022-10-01T17:54:52;7.80;;;3.03;;
2257;SDS011;1136;51.574;7.706;2022-10-01T17:57:19;8.47;;;3.40;;
2257;SDS011;1136;51.574;7.706;2022-10-01T17:59:46;4.10;;;2.60;;
2257;SDS011;1136;51.574;7.706;2022-10-01T18:02:12;4.33;;;2.60;;
2257;SDS011;1136;51.574;7.706;2022-10-01T18:04:59;9.07;;;3.00;;
2257;SDS011;1136;51.574;7.706;2022-10-01T18:07:26;9.00;;;3.03;;
2257;SDS011;1136;51.574;7.706;2022-10-01T18:09:53;10.60;;;3.20;;
2257;SDS011;1136;51.574;7.706;2022-10-01T18:12:19;7.40;;;2.93;;
2257;SDS011;1136;51.574;7.706;2022-10-01T18:14:46;3.93;;;2.63;;
2257;SDS011;1136;51.574;7.706;2022-10-01T18:17:14;13.10;;;10.70;;
2257;SDS011;1136;51.574;7.706;2022-10-01T18:19:41;11.47;;;3.47;;
2257;SDS011;1136;51.574;7.706;2022-10-01T18:22:23;8.20;;;2.87;;
2257;SDS011;1136;51.574;7.706;2022-10-01T18:24:50;5.50;;;2.40;;
2257;SDS011;1136;51.574;7.706;2022-10-01T18:27:16;13.30;;;3.70;;
2257;SDS011;1136;51.574;7.706;2022-10-01T18:29:43;2.80;;;2.60;;
2257;SDS011;1136;51.574;7.706;2022-10-01T18:32:13;4.83;;;3.37;;
2257;SDS011;1136;51.574;7.706;2022-10-01T18:34:44;9.53;;;3.50;;
2257;SDS011;1136;51.574;7.706;2022-10-01T18:40:28;9.70;;;4.07;;